Time;durP1;ratioP1;P1;durP2;ratioP2;P2;SDS_P1;SDS_P2;PMS_P1;PMS_P2;Temp;Humidity;BMP_temperature;BMP_pressure;BME280_temperature;BME280_humidity;BME280_pressure;Samples;Min_cycle;Max_cycle;Signal;HPM_P1;HPM_P2
2022/04/25 00:00:54;;;;;;;20.90;10.43;;;18.40;51.00;;;;;;7394736;19;20093;-77
2022/04/25 00:03:23;;;;;;;19.08;11.90;;;18.40;51.00;;;;;;7371754;19;20018;-77
2022/04/25 00:05:52;;;;;;;19.65;10.93;;;18.50;50.90;;;;;;7371427;19;20010;-77
2022/04/25 00:08:21;;;;;;;19.27;11.05;;;18.50;50.90;;;;;;7372720;19;20011;-77
2022/04/25 00:10:50;;;;;;;27.42;11.45;;;18.50;50.80;;;;;;7372522;19;20042;-77
2022/04/25 00:13:21;;;;;;;19.98;11.32;;;18.50;50.70;;;;;;7393116;19;20026;-78
2022/04/25 00:15:50;;;;;;;20.90;11.15;;;18.50;50.60;;;;;;7373391;19;20117;-77
2022/04/25 00:18:18;;;;;;;19.13;10.35;;;18.50;50.50;;;;;;7370148;19;20018;-77
2022/04/25 00:20:48;;;;;;;19.35;10.98;;;18.50;50.50;;;;;;7372912;19;20017;-77
2022/04/25 00:23:16;;;;;;;25.38;11.88;;;18.50;50.50;;;;;;7372713;19;20014;-77
2022/04/25 00:25:45;;;;;;;16.40;10.13;;;18.40;50.30;;;;;;7370741;19;20027;-77
2022/04/25 00:28:14;;;;;;;23.75;10.75;;;18.40;50.40;;;;;;7392486;19;20101;-78
2022/04/25 00:30:47;;;;;;;16.67;10.23;;;18.30;50.20;;;;;;7371810;19;20094;-77
2022/04/25 00:33:16;;;;;;;22.02;10.90;;;18.30;50.40;;;;;;7370602;19;20014;-77
2022/04/25 00:35:45;;;;;;;18.75;10.43;;;18.10;50.60;;;;;;7369869;19;20114;-77
2022/04/25 00:38:13;;;;;;;24.98;11.57;;;18.20;50.80;;;;;;7371761;19;20089;-78
2022/04/25 00:40:43;;;;;;;21.17;10.32;;;18.20;50.80;;;;;;7371244;19;20048;-78
2022/04/25 00:43:12;;;;;;;20.13;10.68;;;18.20;50.80;;;;;;7394000;19;20038;-77
2022/04/25 00:45:40;;;;;;;17.15;10.90;;;18.20;50.90;;;;;;7369652;19;20097;-79
2022/04/25 00:48:12;;;;;;;16.23;9.52;;;18.20;50.90;;;;;;7368195;19;20035;-78
2022/04/25 00:50:40;;;;;;;;;;;18.20;50.80;;;;;;7370464;19;20040;-78
2022/04/25 00:53:10;;;;;;;22.40;10.13;;;18.10;50.90;;;;;;7369971;19;20313;-79
2022/04/25 00:55:38;;;;;;;19.92;11.77;;;18.10;50.90;;;;;;7370092;19;20332;-77
2022/04/25 00:58:07;;;;;;;19.63;10.27;;;18.00;50.90;;;;;;7392338;19;20438;-78
2022/04/25 01:00:37;;;;;;;21.73;11.10;;;18.00;50.80;;;;;;7369922;19;20021;-78
2022/04/25 01:03:06;;;;;;;21.45;10.43;;;17.90;50.90;;;;;;7370136;19;20018;-78
2022/04/25 01:05:37;;;;;;;19.30;9.85;;;17.90;51.60;;;;;;7368792;19;20679;-78
2022/04/25 01:08:07;;;;;;;20.42;10.48;;;17.80;51.10;;;;;;7369053;19;20082;-78
2022/04/25 01:10:35;;;;;;;20.92;9.65;;;17.90;51.00;;;;;;7370860;19;20032;-78
2022/04/25 01:13:04;;;;;;;17.30;10.13;;;17.70;50.90;;;;;;7393519;19;20348;-78
2022/04/25 01:15:34;;;;;;;19.05;9.85;;;17.70;51.10;;;;;;7369460;19;20029;-78
2022/04/25 01:18:03;;;;;;;15.95;9.38;;;17.70;51.10;;;;;;7369659;19;20014;-78
2022/04/25 01:20:32;;;;;;;20.08;9.98;;;17.50;51.10;;;;;;7370081;19;20022;-78
2022/04/25 01:28:48;;;;;;;19.15;9.32;;;17.60;51.40;;;;;;7370235;19;20042;-77
2022/04/25 01:31:17;;;;;;;16.98;9.07;;;17.60;51.10;;;;;;7393227;19;20460;-78
2022/04/25 01:33:49;;;;;;;20.27;9.10;;;17.60;51.10;;;;;;7371374;19;20025;-78
2022/04/25 01:36:18;;;;;;;21.25;9.80;;;17.70;51.00;;;;;;7369012;19;20091;-77
2022/04/25 01:38:49;;;;;;;17.88;9.90;;;17.60;51.00;;;;;;7369804;19;20028;-78
2022/04/25 01:41:18;;;;;;;19.77;9.57;;;17.60;50.90;;;;;;7369617;19;20094;-78
2022/04/25 01:43:46;;;;;;;16.38;8.68;;;17.50;51.10;;;;;;7369303;19;20010;-78
2022/04/25 01:46:15;;;;;;;21.60;9.10;;;17.50;51.10;;;;;;7388469;19;20026;-78
2022/04/25 01:48:44;;;;;;;18.77;9.20;;;17.50;51.20;;;;;;7368442;19;20019;-78
2022/04/25 01:51:13;;;;;;;16.08;9.38;;;17.40;51.20;;;;;;7370827;19;20080;-78
2022/04/25 01:53:42;;;;;;;21.85;9.35;;;17.40;51.50;;;;;;7370676;19;20014;-78
2022/04/25 01:56:13;;;;;;;17.65;9.18;;;17.40;51.50;;;;;;7369845;19;20014;-78
2022/04/25 01:58:42;;;;;;;19.90;9.35;;;17.40;51.40;;;;;;7368451;19;20089;-78
2022/04/25 02:01:12;;;;;;;18.77;8.95;;;17.40;51.40;;;;;;7388006;19;20011;-78
2022/04/25 02:03:43;;;;;;;16.88;9.45;;;17.40;51.30;;;;;;7369130;19;20018;-77
2022/04/25 02:06:12;;;;;;;18.05;9.88;;;17.40;51.40;;;;;;7368750;19;20019;-77
2022/04/25 02:08:41;;;;;;;22.52;9.32;;;17.30;51.40;;;;;;7369300;19;20022;-78
2022/04/25 02:11:25;;;;;;;17.20;8.85;;;17.20;51.50;;;;;;7366349;19;20031;-77
2022/04/25 02:13:54;;;;;;;23.88;9.43;;;17.20;51.60;;;;;;7369546;19;20328;-77
2022/04/25 02:16:24;;;;;;;17.58;8.55;;;17.20;51.70;;;;;;7369731;19;20035;-77
2022/04/25 02:18:54;;;;;;;21.23;9.13;;;17.20;51.80;;;;;;7393178;19;20026;-77
2022/04/25 02:21:24;;;;;;;17.40;8.93;;;17.20;51.90;;;;;;7371654;19;20431;-77
2022/04/25 02:23:53;;;;;;;17.92;9.25;;;17.20;52.00;;;;;;7376197;19;20010;-77
2022/04/25 02:26:24;;;;;;;20.67;9.00;;;17.10;51.80;;;;;;7375388;19;20021;-77
2022/04/25 02:28:54;;;;;;;19.40;9.13;;;17.10;51.90;;;;;;7375150;19;20018;-78
2022/04/25 02:31:24;;;;;;;18.67;9.25;;;17.10;52.60;;;;;;7373408;19;20727;-78
2022/04/25 02:33:53;;;;;;;22.40;9.20;;;17.10;52.10;;;;;;7396157;19;20026;-78
2022/04/25 02:36:23;;;;;;;19.80;9.13;;;17.10;52.00;;;;;;7373804;19;20011;-77
2022/04/25 02:38:52;;;;;;;17.15;9.00;;;17.00;52.20;;;;;;7371993;19;20746;-78
2022/04/25 02:41:23;;;;;;;19.15;9.07;;;17.00;52.30;;;;;;7374833;19;20125;-78
2022/04/25 02:43:52;;;;;;;20.10;9.55;;;16.90;52.30;;;;;;7375884;19;20053;-78
2022/04/25 02:46:21;;;;;;;21.17;9.07;;;16.90;52.50;;;;;;7377061;19;20106;-78
2022/04/25 02:48:50;;;;;;;16.00;9.18;;;16.80;52.30;;;;;;7394096;19;20340;-78
2022/04/25 02:51:19;;;;;;;17.00;9.15;;;16.80;52.50;;;;;;7372829;19;20015;-78
2022/04/25 02:53:48;;;;;;;24.80;9.05;;;16.80;52.60;;;;;;7375301;19;20068;-78
2022/04/25 02:56:17;;;;;;;15.30;8.85;;;16.80;52.60;;;;;;7376291;19;20089;-78
2022/04/25 02:58:48;;;;;;;15.00;8.63;;;16.70;52.70;;;;;;7373841;19;21338;-77
2022/04/25 03:01:17;;;;;;;20.08;9.73;;;16.70;52.70;;;;;;7396528;19;20109;-77
2022/04/25 03:03:46;;;;;;;20.27;9.68;;;16.70;52.90;;;;;;7371448;19;20355;-78
2022/04/25 03:06:14;;;;;;;19.10;9.10;;;16.60;53.00;;;;;;7374399;19;20028;-78
2022/04/25 03:08:43;;;;;;;19.35;9.40;;;16.60;53.10;;;;;;7372660;19;20028;-78
2022/04/25 03:11:12;;;;;;;24.20;10.45;;;16.50;53.30;;;;;;7374591;19;20072;-79
2022/04/25 03:13:41;;;;;;;18.65;9.68;;;16.50;53.50;;;;;;7373939;19;20018;-78
2022/04/25 03:16:12;;;;;;;20.65;9.30;;;16.50;53.60;;;;;;7393039;19;20018;-77
2022/04/25 03:18:41;;;;;;;20.80;10.00;;;16.50;53.60;;;;;;7372993;19;20019;-78
2022/04/25 03:21:10;;;;;;;18.52;9.27;;;16.40;53.80;;;;;;7373539;19;20322;-77
2022/04/25 03:23:39;;;;;;;19.55;9.38;;;16.50;54.00;;;;;;7374253;19;20405;-78
2022/04/25 03:26:08;;;;;;;25.27;10.48;;;16.40;53.80;;;;;;7374487;19;20097;-78
2022/04/25 03:28:37;;;;;;;28.30;11.30;;;16.50;54.00;;;;;;7371758;19;20085;-78
2022/04/25 03:31:08;;;;;;;23.20;9.75;;;16.40;54.10;;;;;;7391162;19;20612;-77
2022/04/25 03:33:40;;;;;;;25.90;11.00;;;16.40;54.30;;;;;;7371116;19;20090;-78
2022/04/25 03:36:08;;;;;;;;;;;16.40;54.50;;;;;;7372896;19;20082;-78
2022/04/25 03:38:38;;;;;;;20.55;10.18;;;16.20;54.70;;;;;;7373018;19;20311;-78
2022/04/25 03:41:07;;;;;;;26.10;11.27;;;16.20;54.80;;;;;;7373870;19;20046;-77
2022/04/25 03:43:36;;;;;;;27.85;11.85;;;16.30;54.80;;;;;;7371639;19;20098;-78
2022/04/25 03:46:05;;;;;;;25.38;11.55;;;16.30;54.90;;;;;;7395847;19;20105;-78
2022/04/25 03:48:34;;;;;;;27.25;11.77;;;16.30;55.60;;;;;;7373015;19;20031;-78
2022/04/25 03:51:05;;;;;;;23.63;10.82;;;16.20;55.10;;;;;;7372276;19;20034;-78
2022/04/25 03:53:34;;;;;;;29.55;11.23;;;16.20;55.20;;;;;;7371843;19;20413;-77
2022/04/25 03:58:43;;;;;;;31.75;12.43;;;16.20;55.40;;;;;;7371627;19;20344;-77
2022/04/25 04:01:12;;;;;;;24.67;11.82;;;16.20;56.10;;;;;;7394572;19;20021;-77
2022/04/25 04:03:41;;;;;;;29.48;11.95;;;16.20;55.50;;;;;;7373020;19;20106;-77
2022/04/25 04:06:13;;;;;;;29.20;11.50;;;16.20;56.30;;;;;;7370659;19;20046;-77
2022/04/25 04:08:42;;;;;;;23.98;11.45;;;16.10;55.60;;;;;;7373128;19;20014;-78
2022/04/25 04:11:11;;;;;;;29.45;12.38;;;16.10;55.70;;;;;;7373524;19;20024;-77
2022/04/25 04:13:39;;;;;;;34.40;13.15;;;16.20;55.80;;;;;;7372957;19;20083;-77
2022/04/25 04:16:08;;;;;;;27.00;12.35;;;16.20;55.70;;;;;;7394222;19;20022;-77
2022/04/25 04:18:39;;;;;;;32.42;11.88;;;16.10;55.80;;;;;;7371130;19;20113;-77
2022/04/25 04:21:09;;;;;;;27.55;12.77;;;16.10;56.00;;;;;;7371050;19;20061;-77
2022/04/25 04:23:40;;;;;;;27.92;12.27;;;16.00;56.10;;;;;;7369660;19;20061;-77
2022/04/25 04:26:09;;;;;;;36.13;13.93;;;15.90;56.40;;;;;;7372700;19;20024;-78
2022/04/25 04:28:38;;;;;;;35.08;13.65;;;15.70;56.70;;;;;;7368495;19;20067;-78
2022/04/25 04:31:06;;;;;;;29.90;13.48;;;15.70;56.80;;;;;;7391552;19;20022;-78
2022/04/25 04:33:35;;;;;;;27.05;12.27;;;15.80;56.90;;;;;;7369398;19;20022;-77
2022/04/25 04:38:50;;;;;;;29.02;12.23;;;15.90;57.00;;;;;;7370053;19;20038;-78
2022/04/25 04:41:19;;;;;;;;;;;15.90;56.70;;;;;;7372506;19;20042;-78
2022/04/25 04:43:47;;;;;;;28.73;13.55;;;15.70;57.00;;;;;;7369090;19;19946;-77
2022/04/25 04:46:16;;;;;;;37.72;13.48;;;15.70;57.10;;;;;;7392963;19;20040;-78
2022/04/25 04:48:45;;;;;;;31.33;13.68;;;15.70;57.20;;;;;;7370914;19;20383;-78
2022/04/25 04:51:13;;;;;;;36.38;14.52;;;15.80;57.20;;;;;;7370330;19;20042;-78
2022/04/25 04:53:42;;;;;;;32.30;13.82;;;15.80;57.20;;;;;;7372920;19;20418;-77
2022/04/25 04:56:13;;;;;;;34.65;14.30;;;15.80;57.20;;;;;;7369574;19;20014;-78
2022/04/25 04:58:42;;;;;;;29.35;14.27;;;15.70;57.40;;;;;;7370718;19;20334;-78
2022/04/25 05:01:11;;;;;;;36.08;14.55;;;15.80;57.50;;;;;;7391963;19;20088;-77
2022/04/25 05:03:41;;;;;;;36.88;14.98;;;15.80;57.40;;;;;;7370752;19;20053;-77
2022/04/25 05:06:10;;;;;;;34.97;15.20;;;15.80;57.30;;;;;;7371100;19;20183;-77
2022/04/25 05:08:38;;;;;;;38.28;14.88;;;15.80;57.30;;;;;;7371100;19;20447;-78
2022/04/25 05:11:09;;;;;;;35.97;15.75;;;15.80;57.40;;;;;;7370373;19;20052;-78
2022/04/25 05:13:40;;;;;;;33.72;15.43;;;15.80;57.50;;;;;;7372378;19;20109;-77
2022/04/25 05:16:09;;;;;;;39.42;15.75;;;15.80;57.50;;;;;;7389843;19;20022;-78
2022/04/25 05:18:38;;;;;;;34.42;16.27;;;15.80;57.60;;;;;;7368485;19;20426;-78
2022/04/25 05:21:08;;;;;;;40.65;16.70;;;15.80;57.50;;;;;;7368918;19;20458;-78
2022/04/25 05:23:37;;;;;;;39.25;17.15;;;15.70;57.70;;;;;;7370851;19;20370;-78
2022/04/25 05:26:07;;;;;;;32.65;16.17;;;15.60;57.80;;;;;;7370322;19;20114;-79
2022/04/25 05:28:36;;;;;;;40.90;17.40;;;15.50;58.00;;;;;;7367083;19;20094;-76
2022/04/25 05:31:07;;;;;;;35.42;17.13;;;15.60;58.00;;;;;;7386772;19;20048;-77
2022/04/25 05:33:36;;;;;;;34.83;16.38;;;15.60;58.10;;;;;;7368314;19;20019;-77
2022/04/25 05:36:05;;;;;;;38.83;18.02;;;15.70;58.00;;;;;;7370394;19;20010;-77
2022/04/25 05:38:34;;;;;;;41.92;19.05;;;15.70;57.90;;;;;;7369246;19;20086;-77
2022/04/25 05:41:03;;;;;;;41.25;18.85;;;15.70;57.90;;;;;;7367956;19;20038;-78
2022/04/25 05:43:32;;;;;;;36.50;18.80;;;15.70;57.90;;;;;;7366896;19;20424;-78
2022/04/25 05:46:01;;;;;;;33.55;17.10;;;15.50;58.00;;;;;;7393352;19;20086;-77
2022/04/25 05:53:57;;;;;;;37.83;19.63;;;15.60;57.90;;;;;;7371386;19;20023;-77
2022/04/25 05:56:26;;;;;;;48.97;21.83;;;15.70;57.90;;;;;;7374266;19;20019;-77
2022/04/25 05:58:55;;;;;;;39.45;20.90;;;15.60;57.90;;;;;;7374211;19;20023;-78
2022/04/25 06:01:23;;;;;;;38.28;20.17;;;15.50;58.10;;;;;;7375417;19;20015;-78
2022/04/25 06:03:55;;;;;;;41.05;21.02;;;15.60;58.30;;;;;;7395338;19;20435;-77
2022/04/25 06:06:26;;;;;;;44.25;22.35;;;15.70;58.20;;;;;;7373528;19;20125;-77
2022/04/25 06:08:54;;;;;;;44.28;22.17;;;15.60;58.10;;;;;;7372873;19;20655;-79
2022/04/25 06:11:23;;;;;;;44.20;21.17;;;15.60;58.10;;;;;;7373350;19;20022;-77
2022/04/25 06:13:56;;;;;;;46.50;22.90;;;15.60;57.90;;;;;;7375190;19;20351;-78
2022/04/25 06:16:25;;;;;;;45.40;22.10;;;15.50;58.00;;;;;;7374115;19;20624;-78
2022/04/25 06:18:56;;;;;;;43.47;21.33;;;15.30;58.50;;;;;;7389940;19;20041;-78
2022/04/25 06:21:25;;;;;;;38.65;21.85;;;15.40;58.60;;;;;;7371463;19;20043;-77
2022/04/25 06:23:54;;;;;;;44.28;24.10;;;15.40;58.30;;;;;;7370251;19;20451;-77
2022/04/25 06:26:22;;;;;;;47.20;23.77;;;15.40;58.10;;;;;;7375098;19;20106;-77
2022/04/25 06:28:51;;;;;;;39.65;21.95;;;15.50;58.20;;;;;;7370802;19;20040;-78
2022/04/25 06:31:22;;;;;;;42.17;23.98;;;15.60;58.10;;;;;;7391325;19;20034;-77
2022/04/25 06:33:57;;;;;;;45.22;24.40;;;15.50;57.90;;;;;;7394237;19;20909;-77
2022/04/25 06:36:26;;;;;;;40.97;23.40;;;15.50;58.10;;;;;;7375719;19;20011;-78
2022/04/25 06:38:55;;;;;;;41.15;22.63;;;15.30;57.80;;;;;;7375265;19;20010;-77
2022/04/25 06:41:23;;;;;;;44.30;24.17;;;15.40;58.10;;;;;;7378725;19;20038;-78
2022/04/25 06:43:52;;;;;;;42.20;23.98;;;15.40;57.90;;;;;;7377496;19;20077;-78
2022/04/25 06:46:21;;;;;;;41.70;23.17;;;15.40;57.70;;;;;;7376579;19;20025;-78
2022/04/25 06:51:34;;;;;;;44.13;25.08;;;15.50;58.20;;;;;;7374032;19;20011;-78
2022/04/25 06:54:02;;;;;;;;;;;15.60;57.40;;;;;;7375149;19;20392;-78
2022/04/25 06:56:32;;;;;;;39.70;22.77;;;15.80;57.20;;;;;;7373374;19;19922;-78
2022/04/25 06:59:01;;;;;;;46.15;24.38;;;15.70;57.00;;;;;;7375288;19;20014;-78
2022/04/25 07:01:30;;;;;;;37.50;24.05;;;15.80;56.80;;;;;;7373485;19;20078;-78
2022/04/25 07:03:58;;;;;;;42.67;25.02;;;15.80;56.60;;;;;;7395526;19;20442;-78
2022/04/25 07:06:27;;;;;;;40.60;23.52;;;15.90;56.50;;;;;;7372879;19;20010;-78
2022/04/25 07:08:58;;;;;;;50.17;23.95;;;16.00;56.20;;;;;;7376582;19;20099;-78
2022/04/25 07:11:28;;;;;;;38.40;24.60;;;15.90;56.10;;;;;;7371065;19;20410;-78
2022/04/25 07:13:59;;;;;;;39.45;23.88;;;15.80;56.30;;;;;;7376851;19;20030;-78
2022/04/25 07:16:28;;;;;;;46.95;25.60;;;15.90;56.50;;;;;;7371414;19;20090;-78
2022/04/25 07:18:57;;;;;;;50.80;24.95;;;16.00;56.30;;;;;;7393546;19;20021;-78
2022/04/25 07:29:32;;;;;;;43.63;25.38;;;15.80;56.60;;;;;;7376700;19;20350;-78
2022/04/25 07:32:01;;;;;;;45.55;25.20;;;15.90;56.20;;;;;;7375067;19;20370;-78
2022/04/25 07:34:30;;;;;;;43.55;25.25;;;16.00;56.10;;;;;;7375408;19;20532;-78
2022/04/25 07:37:00;;;;;;;45.13;25.27;;;15.90;56.00;;;;;;7395175;19;20089;-80
2022/04/25 07:39:32;;;;;;;42.00;26.55;;;15.90;55.70;;;;;;7373151;19;20019;-81
2022/04/25 07:42:00;;;;;;;;;;;15.90;55.90;;;;;;7376950;19;20093;-80
2022/04/25 07:44:29;;;;;;;45.15;24.77;;;15.80;56.00;;;;;;7377185;19;19923;-79
2022/04/25 07:46:58;;;;;;;38.78;24.30;;;15.90;56.10;;;;;;7373616;19;20018;-79
2022/04/25 07:49:27;;;;;;;40.67;24.35;;;16.00;56.30;;;;;;7374565;19;20038;-78
2022/04/25 07:51:56;;;;;;;41.10;22.58;;;16.10;55.90;;;;;;7393660;19;20022;-79
2022/04/25 07:54:25;;;;;;;45.25;25.80;;;16.20;55.60;;;;;;7375122;19;20510;-78
2022/04/25 07:56:58;;;;;;;42.65;24.65;;;16.20;55.20;;;;;;7373845;19;20026;-78
2022/04/25 07:59:27;;;;;;;43.60;24.52;;;16.20;55.70;;;;;;7373664;19;20011;-78
2022/04/25 08:01:56;;;;;;;42.92;24.88;;;16.20;55.20;;;;;;7374149;19;20024;-78
2022/04/25 08:04:25;;;;;;;43.00;25.00;;;15.90;55.20;;;;;;7374357;19;20074;-79
2022/04/25 08:06:53;;;;;;;41.97;25.75;;;15.90;55.60;;;;;;7393585;19;20106;-78
2022/04/25 08:09:22;;;;;;;42.70;24.73;;;15.60;55.90;;;;;;7373344;19;20181;-78
2022/04/25 08:17:56;;;;;;;42.35;24.73;;;15.60;56.20;;;;;;7375073;19;20018;-79
2022/04/25 08:20:05;;;;;;;46.42;25.73;;;15.70;56.10;;;;;;7372796;19;20030;-78
2022/04/25 08:22:34;;;;;;;43.80;25.08;;;15.60;56.10;;;;;;7373974;19;20050;-79
2022/04/25 08:25:04;;;;;;;40.90;24.85;;;15.70;56.30;;;;;;7393291;19;20025;-79
2022/04/25 08:27:33;;;;;;;41.05;26.65;;;15.90;56.40;;;;;;7373222;19;20018;-78
2022/04/25 08:30:05;;;;;;;56.08;25.75;;;15.80;56.00;;;;;;7372119;19;20082;-78
2022/04/25 08:32:33;;;;;;;36.33;23.33;;;15.90;56.10;;;;;;7372901;19;20007;-79
2022/04/25 08:35:03;;;;;;;37.38;24.55;;;15.90;55.70;;;;;;7369869;19;20007;-78
2022/04/25 08:37:32;;;;;;;42.95;24.05;;;15.80;56.00;;;;;;7372173;19;20345;-77
2022/04/25 08:40:01;;;;;;;39.38;24.45;;;15.70;56.00;;;;;;7395017;19;20014;-80
2022/04/25 08:42:31;;;;;;;38.65;23.33;;;15.90;56.10;;;;;;7372765;19;20026;-78
2022/04/25 08:45:05;;;;;;;39.90;24.73;;;16.00;56.00;;;;;;7371187;19;20050;-78
2022/04/25 08:47:39;;;;;;;40.72;25.65;;;16.00;55.60;;;;;;7372061;19;20031;-77
2022/04/25 08:50:08;;;;;;;37.60;25.15;;;15.90;56.00;;;;;;7372755;19;20382;-77
2022/04/25 08:52:40;;;;;;;39.75;24.70;;;15.80;55.90;;;;;;7372080;19;20031;-77
2022/04/25 08:55:10;;;;;;;45.55;24.77;;;15.70;56.30;;;;;;7394490;19;20098;-78
2022/04/25 08:57:40;;;;;;;43.67;25.63;;;15.70;55.90;;;;;;7371082;19;20019;-78
2022/04/25 09:00:15;;;;;;;41.03;23.45;;;15.70;56.10;;;;;;7368500;19;20086;-78
2022/04/25 09:02:44;;;;;;;47.55;25.77;;;15.80;55.90;;;;;;7370343;19;20369;-78
2022/04/25 09:05:14;;;;;;;41.53;24.58;;;15.90;55.80;;;;;;7370468;19;20014;-76
2022/04/25 09:07:44;;;;;;;38.40;23.10;;;15.80;55.90;;;;;;7370682;19;20102;-78
2022/04/25 09:10:15;;;;;;;39.13;22.90;;;15.80;56.00;;;;;;7392167;19;20018;-78
2022/04/25 09:12:46;;;;;;;36.10;21.70;;;15.90;55.90;;;;;;7368236;19;20078;-78
2022/04/25 09:15:18;;;;;;;;;;;16.00;55.40;;;;;;7371441;19;20017;-78
2022/04/25 09:17:48;;;;;;;32.35;21.40;;;16.20;55.20;;;;;;7369899;19;19935;-78
2022/04/25 09:20:18;;;;;;;40.92;21.58;;;16.10;55.10;;;;;;7370830;19;20117;-78
2022/04/25 09:22:47;;;;;;;33.78;21.45;;;16.30;54.80;;;;;;7370855;19;20022;-78
2022/04/25 09:25:18;;;;;;;38.33;21.55;;;16.30;55.20;;;;;;7389359;19;20447;-77
2022/04/25 09:27:47;;;;;;;39.43;22.37;;;16.30;54.10;;;;;;7374893;19;20018;-77
2022/04/25 09:30:20;;;;;;;32.65;20.92;;;16.30;54.30;;;;;;7375537;19;20481;-77
2022/04/25 09:32:50;;;;;;;37.40;22.13;;;16.10;54.90;;;;;;7376706;19;20014;-78
2022/04/25 09:35:37;;;;;;;43.63;23.20;;;16.00;55.40;;;;;;7374178;19;20020;-76
2022/04/25 09:38:09;;;;;;;37.63;21.73;;;16.20;55.30;;;;;;7373182;19;20063;-77
2022/04/25 09:40:41;;;;;;;41.85;22.10;;;16.20;54.90;;;;;;7375737;19;20051;-78
2022/04/25 09:43:12;;;;;;;36.05;23.00;;;16.10;54.70;;;;;;7396142;19;20023;-79
2022/04/25 09:45:45;;;;;;;36.63;22.17;;;16.20;54.70;;;;;;7374272;19;20767;-77
2022/04/25 09:48:15;;;;;;;38.55;21.73;;;16.20;54.80;;;;;;7377467;19;20011;-76
2022/04/25 09:50:46;;;;;;;30.10;20.80;;;16.10;55.30;;;;;;7375028;19;20745;-77
2022/04/25 09:53:15;;;;;;;36.67;21.10;;;16.20;55.10;;;;;;7375902;19;20038;-77
2022/04/25 09:55:43;;;;;;;34.80;22.65;;;16.30;54.40;;;;;;7375702;19;20006;-77
2022/04/25 09:58:20;;;;;;;37.78;21.63;;;16.40;54.10;;;;;;7393587;19;20203;-78
2022/04/25 10:00:53;;;;;;;34.15;22.15;;;16.30;53.80;;;;;;7376668;19;20014;-78
2022/04/25 10:03:35;;;;;;;37.20;23.05;;;16.30;54.00;;;;;;7375520;19;20014;-78
2022/04/25 10:06:05;;;;;;;33.92;20.15;;;16.40;54.10;;;;;;7376253;19;20018;-78
2022/04/25 10:08:36;;;;;;;30.20;19.52;;;16.50;54.00;;;;;;7339351;19;20526;-79
2022/04/25 10:11:06;;;;;;;31.42;20.83;;;16.70;54.10;;;;;;7396685;19;20050;-77
2022/04/25 10:13:36;;;;;;;30.40;19.25;;;16.60;52.80;;;;;;7376559;19;20130;-78
2022/04/25 10:16:07;;;;;;;25.55;18.27;;;16.70;53.20;;;;;;7372621;19;20025;-77
2022/04/25 10:18:37;;;;;;;;;;;16.90;53.40;;;;;;7375232;19;20014;-79
2022/04/25 10:21:07;;;;;;;28.17;19.50;;;17.10;53.40;;;;;;7374678;19;19915;-78
2022/04/25 10:23:38;;;;;;;36.13;19.50;;;17.20;53.30;;;;;;7387320;19;20074;-79
2022/04/25 10:26:07;;;;;;;33.55;19.58;;;17.40;53.50;;;;;;7395854;19;20038;-78
2022/04/25 10:28:40;;;;;;;34.75;20.23;;;17.50;53.10;;;;;;7373488;19;20018;-77
2022/04/25 10:31:14;;;;;;;28.35;19.10;;;17.40;51.80;;;;;;7399957;19;20010;-80
2022/04/25 10:33:53;;;;;;;28.00;17.40;;;17.40;52.00;;;;;;7365571;19;20079;-79
2022/04/25 10:36:49;;;;;;;29.15;18.40;;;17.40;52.40;;;;;;7378892;19;20761;-78
2022/04/25 10:39:19;;;;;;;27.92;18.60;;;17.50;52.10;;;;;;7372873;19;20014;-80
2022/04/25 10:45:00;;;;;;;26.67;17.45;;;17.70;51.50;;;;;;7374740;19;20015;-77
2022/04/25 10:47:32;;;;;;;29.67;17.75;;;17.80;51.70;;;;;;7373105;19;20371;-79
2022/04/25 10:50:09;;;;;;;28.27;19.08;;;18.00;50.80;;;;;;7373774;19;20097;-78
2022/04/25 10:53:10;;;;;;;24.90;16.23;;;17.90;50.40;;;;;;7395475;19;20022;-78
2022/04/25 10:55:46;;;;;;;23.38;16.90;;;18.00;50.30;;;;;;7370447;19;20105;-78
2022/04/25 10:58:17;;;;;;;30.58;16.90;;;18.10;50.10;;;;;;7372097;19;20014;-77
2022/04/25 11:00:51;;;;;;;26.90;16.58;;;18.00;49.20;;;;;;7370030;19;20687;-78
2022/04/25 11:03:24;;;;;;;26.30;16.27;;;18.10;49.50;;;;;;7373229;19;20105;-78
2022/04/25 11:05:55;;;;;;;28.27;16.33;;;18.20;49.60;;;;;;7369605;19;20814;-78
2022/04/25 11:08:40;;;;;;;22.58;15.30;;;18.20;49.10;;;;;;7371825;19;20085;-77
2022/04/25 11:11:20;;;;;;;25.15;14.63;;;18.30;49.30;;;;;;7373133;19;20051;-77
2022/04/25 11:14:16;;;;;;;22.60;14.25;;;18.40;49.70;;;;;;7374759;19;20038;-77
2022/04/25 11:16:45;;;;;;;21.35;13.60;;;18.30;48.90;;;;;;7394845;19;20035;-77
2022/04/25 11:19:20;;;;;;;21.27;13.95;;;18.30;48.70;;;;;;7376854;19;20124;-77
2022/04/25 11:21:55;;;;;;;20.98;13.52;;;18.20;47.70;;;;;;7373152;19;20443;-76
2022/04/25 11:24:33;;;;;;;18.20;12.52;;;18.20;48.30;;;;;;7375798;19;20038;-77
2022/04/25 11:27:03;;;;;;;24.63;12.80;;;18.20;49.10;;;;;;7375665;19;20062;-77
2022/04/25 11:29:33;;;;;;;17.15;11.68;;;18.30;48.30;;;;;;7372426;19;20011;-77
2022/04/25 11:32:38;;;;;;;21.65;13.32;;;18.50;48.60;;;;;;7373479;19;20022;-78
2022/04/25 11:35:10;;;;;;;19.88;13.35;;;18.50;47.60;;;;;;7374178;19;20024;-78
2022/04/25 11:37:39;;;;;;;25.92;13.95;;;18.50;49.10;;;;;;7395345;19;20043;-78
2022/04/25 11:40:11;;;;;;;29.83;13.23;;;18.30;48.00;;;;;;7373270;19;20018;-77
2022/04/25 11:42:40;;;;;;;24.77;13.13;;;18.40;47.90;;;;;;7372582;19;20010;-78
2022/04/25 11:45:10;;;;;;;20.17;12.32;;;18.40;47.50;;;;;;7370378;19;20085;-78
2022/04/25 11:47:39;;;;;;;15.85;9.77;;;18.40;47.60;;;;;;7371869;19;20018;-78
2022/04/25 11:50:13;;;;;;;13.55;9.82;;;18.60;47.20;;;;;;7369572;19;20023;-79
2022/04/25 11:52:48;;;;;;;23.80;9.52;;;18.50;45.40;;;;;;7391945;19;20099;-80
2022/04/25 11:55:18;;;;;;;15.63;10.23;;;18.50;45.00;;;;;;7377108;19;20018;-80
2022/04/25 11:57:48;;;;;;;14.65;9.73;;;18.70;45.50;;;;;;7380458;19;20018;-80
2022/04/25 12:00:20;;;;;;;16.85;9.65;;;18.90;45.60;;;;;;7377019;19;20014;-80
2022/04/25 12:02:50;;;;;;;13.85;8.88;;;18.80;44.40;;;;;;7373207;19;20030;-79
2022/04/25 12:05:31;;;;;;;13.25;8.05;;;18.90;44.40;;;;;;7375348;19;20359;-80
2022/04/25 12:16:05;;;;;;;10.45;7.22;;;19.40;43.10;;;;;;7374597;19;20640;-79
2022/04/25 12:18:34;;;;;;;12.85;7.07;;;19.50;42.40;;;;;;7373496;19;20403;-80
2022/04/25 12:21:08;;;;;;;15.15;7.50;;;19.70;41.80;;;;;;7381190;19;20019;-80
2022/04/25 12:23:39;;;;;;;11.40;6.70;;;19.70;41.70;;;;;;7377443;19;20025;-80
2022/04/25 12:26:09;;;;;;;14.18;7.93;;;19.70;40.50;;;;;;7371097;19;20003;-79
2022/04/25 12:28:39;;;;;;;11.38;7.18;;;19.80;40.00;;;;;;7394799;19;20018;-80
2022/04/25 12:31:10;;;;;;;12.13;6.18;;;19.80;40.10;;;;;;7372412;19;20025;-80
2022/04/25 12:33:41;;;;;;;10.48;6.70;;;19.90;40.90;;;;;;7371641;19;20018;-80
2022/04/25 12:36:16;;;;;;;13.45;7.03;;;20.00;40.30;;;;;;7372405;19;20502;-79
2022/04/25 12:38:46;;;;;;;12.05;6.05;;;19.80;38.80;;;;;;7371048;19;20346;-79
2022/04/25 12:41:23;;;;;;;7.53;5.10;;;19.70;39.20;;;;;;7372897;19;20085;-80
2022/04/25 12:43:54;;;;;;;13.02;6.45;;;19.70;39.80;;;;;;7373725;19;20022;-80
2022/04/25 12:46:42;;;;;;;7.53;5.90;;;19.60;39.00;;;;;;7393604;19;20019;-79
2022/04/25 12:49:13;;;;;;;13.80;6.15;;;19.70;38.00;;;;;;7372087;19;20014;-80
2022/04/25 12:52:01;;;;;;;8.43;5.97;;;19.50;38.30;;;;;;7370712;19;20029;-80
2022/04/25 12:54:32;;;;;;;9.75;5.10;;;19.50;39.50;;;;;;7372407;19;20014;-80
2022/04/25 12:57:13;;;;;;;12.40;5.07;;;19.40;38.50;;;;;;7371260;19;20015;-79
2022/04/25 12:59:43;;;;;;;10.05;5.15;;;19.50;39.80;;;;;;7370424;19;20026;-80
2022/04/25 13:02:14;;;;;;;10.73;4.43;;;19.70;40.00;;;;;;7373926;19;20022;-80
2022/04/25 13:04:52;;;;;;;9.55;4.10;;;19.80;39.50;;;;;;7396789;19;20020;-80
2022/04/25 13:07:25;;;;;;;10.38;4.55;;;20.00;38.80;;;;;;7372012;19;20038;-80
2022/04/25 13:09:56;;;;;;;7.15;4.30;;;20.10;36.60;;;;;;7370579;19;20011;-80
2022/04/25 13:12:27;;;;;;;6.88;4.63;;;20.20;37.20;;;;;;7368249;19;20397;-80
2022/04/25 13:14:55;;;;;;;9.35;4.13;;;20.30;37.10;;;;;;7371973;19;20011;-80
2022/04/25 13:17:24;;;;;;;10.70;3.83;;;20.50;37.30;;;;;;7369732;19;20479;-80
2022/04/25 13:19:53;;;;;;;7.35;4.00;;;20.60;38.60;;;;;;7371566;19;20094;-80
2022/04/25 13:22:25;;;;;;;6.88;3.75;;;20.50;36.70;;;;;;7392235;19;20094;-80
2022/04/25 13:24:54;;;;;;;7.10;4.13;;;20.30;37.00;;;;;;7368972;19;20021;-80
2022/04/25 13:27:23;;;;;;;8.73;4.18;;;20.20;37.50;;;;;;7370378;19;20097;-80
2022/04/25 13:29:51;;;;;;;10.50;4.15;;;20.20;37.90;;;;;;7370193;19;20018;-80
2022/04/25 13:32:20;;;;;;;6.45;3.95;;;20.10;37.60;;;;;;7369192;19;20019;-80
2022/04/25 13:34:49;;;;;;;12.40;3.55;;;20.00;37.60;;;;;;7369224;19;20023;-80